Edithburgh, South Australia

6:36 PM ACST on May 30, 2015 (GMT +0930)
Adelaide International | | Change Station
CLOSE
Current Station
Airport
Location: Adelaide,
Elevation: 20 ft
Nearby Weather Stations

Elev 20 ft 34.95 °S, 138.52 °E | Updated 6 minutes ago

Mostly Cloudy
Mostly Cloudy
57 °F
Feels Like 57 °F
N
8
Wind Variable Wind from NW

Today
High -- | Low -- °F
--% Chance of Precip.
Yesterday
High -- | Low -- °F
Precip. -- in
7:16 AM 5:15 PM
Waxing Gibbous, 89% visible
Pressure 30.12 in
Visibility 6.2 miles
Clouds Few 1800 ft
Mostly Cloudy 3000 ft
Dew Point 52 °F
Humidity 82%
Rainfall 0.00 in
Snow Depth Not available.
UV 0 out of 12
Pollen Not available.
Air Quality Not available.
Flu Activity Not available.
METAR YPAD 300900Z 31007KT 9999 FEW018 BKN030 14/11 Q1020 INTER 0900/1030 5000 SHRA BKN010 BKN025

More Conditions Fewer Conditions

Pressure 30.12 in
Visibility 6.2 miles
Clouds Few 1800 ft
Mostly Cloudy 3000 ft
Dew Point 52 °F
Humidity 82%
Rainfall 0.00 in
Snow Depth Not available.
UV 0 out of 12
Pollen Not available.
Air Quality Not available.
Flu Activity Not available.
METAR YPAD 300900Z 31007KT 9999 FEW018 BKN030 14/11 Q1020 INTER 0900/1030 5000 SHRA BKN010 BKN025

More Conditions Fewer Conditions

10-Day Weather Forecast

Almanac

Astronomy

May. 30, 2015 Rise Set
Actual Time
Civil Twilight
Nautical Twilight
Astronomical Twilight
Moon
Length of Visible Light
Length of Day
Tomorrow will be .
, % of the Moon is Illuminated

Today's Extremes

Country Highs Country Lows

Community

WunderPhotos

Upload Photos

1,825,473 photos uploaded!

WunderBlogs® & News

Nearby

Air Quality

  Air Quality AQ Index Pollutant
Not available.

Snow Depth

Station Depth Elevation

Earthquake Activity

City Distance Mag. Time & Date
Minimum magnitude displayed is 2.5.

Coastal Water Temperatures

Place Temperature

Stations

Nearby Weather Stations

Station Location Temp. Windchill Dew Point Humidity Wind Precip. Elev Updated Type